Flight Track Log - Related Links

Times and Time Zones

All times are in EDT time to prevent confusion due to time zone crossing. See the AAL832 flight status page for this flight to view local times or setup timezone preferences in your user account.

Time Position Orientation Groundspeed Altitude Reporting Facility
EDT Latitude Longitude Course Direction KTS MPH feet Rate Location/Type
Thu 05:34:14 PM 41.9620 -87.8890 222° Southwest 135 155  Level FlightAware ADS-B
Thu 05:34:40 PM 41.9470 -87.9050 218° Southwest 168 193 1,800 3,667 Climbing FlightAware ADS-B
Thu 05:34:50 PM 41.9390 -87.9070 191° South 180 207 2,200 1,610 Climbing FlightAware ADS-B
Thu 05:35:21 PM 41.9110 -87.9020 172° South 217 250 2,900 1,350 Climbing FlightAware ADS-B
Thu 05:35:30 PM 41.9000 -87.9000 172° South 234 269 3,100 2,087 Climbing FlightAware ADS-B
Thu 05:36:07 PM 41.8610 -87.8830 162° South 265 305 4,500 2,557 Climbing FlightAware ADS-B
Thu 05:36:31 PM 41.8320 -87.8620 152° Southeast 281 323 5,700 2,780 Climbing FlightAware ADS-B
Thu 05:36:48 PM 41.8130 -87.8490 153° Southeast 290 334 6,400 2,591 Climbing FlightAware ADS-B
Thu 05:37:15 PM 41.7790 -87.8230 150° Southeast 303 349 7,600 2,651 Climbing FlightAware ADS-B
Thu 05:37:31 PM 41.7590 -87.8090 152° Southeast 311 358 8,300 2,727 Climbing FlightAware ADS-B
Thu 05:37:59 PM 41.7220 -87.7830 152° Southeast 321 369 9,600 2,696 Climbing FlightAware ADS-B
Thu 05:38:40 PM 41.6690 -87.7460 152° Southeast 331 381 11,400 2,682 Climbing FlightAware ADS-B
Thu 05:39:24 PM 41.6090 -87.7030 152° Southeast 341 392 13,400 2,370 Climbing FlightAware ADS-B
Thu 05:40:01 PM 41.5570 -87.6650 151° Southeast 360 414 14,600 2,148 Climbing FlightAware ADS-B
Thu 05:40:45 PM 41.4880 -87.6160 152° Southeast 377 434 16,300 2,286 Climbing FlightAware ADS-B
Thu 05:41:25 PM 41.4260 -87.5770 155° Southeast 379 436 17,800 1,929 Climbing FlightAware ADS-B
Thu 05:42:09 PM 41.3460 -87.5580 170° South 393 452 19,000 1,294 Climbing FlightAware ADS-B
Thu 05:43:07 PM 41.2390 -87.5570 180° South 417 480 20,000 1,554 Climbing FlightAware ADS-B
Thu 05:44:01 PM 41.1340 -87.5430 174° South 433 498 21,900 1,895 Climbing FlightAware ADS-B
Thu 05:44:42 PM 41.0540 -87.5130 164° South 449 517 23,000 1,538 Climbing FlightAware ADS-B
Thu 05:45:19 PM 40.9790 -87.4840 164° South 461 531 23,900 1,446 Climbing FlightAware ADS-B
Thu 05:46:05 PM 40.8860 -87.4490 164° South 473 544 25,000 1,416 Climbing FlightAware ADS-B
Thu 05:46:48 PM 40.7920 -87.4140 164° South 483 556 26,000 1,465 Climbing FlightAware ADS-B
Thu 05:47:31 PM 40.7010 -87.3800 164° South 488 562 27,100 1,448 Climbing FlightAware ADS-B
Thu 05:48:15 PM 40.6030 -87.3430 164° South 495 570 28,100 1,350 Climbing FlightAware ADS-B
Thu 05:48:51 PM 40.5210 -87.3130 164° South 499 574 28,900 1,185 Climbing FlightAware ADS-B
Thu 05:49:36 PM 40.4220 -87.2760 164° South 508 585 29,700 1,059 Climbing FlightAware ADS-B
Thu 05:50:16 PM 40.3290 -87.2420 164° South 514 592 30,400 1,114 Climbing FlightAware ADS-B
Thu 05:50:46 PM 40.2600 -87.2170 165° South 518 596 31,000 1,083 Climbing FlightAware ADS-B
Thu 05:51:28 PM 40.1620 -87.1810 164° South 521 600 31,700 1,286 Climbing FlightAware ADS-B
Thu 05:52:10 PM 40.0660 -87.1450 164° South 518 596 32,800 1,379 Climbing FlightAware ADS-B
Thu 05:52:55 PM 39.9660 -87.0960 159° South 521 600 33,700 1,172 Climbing FlightAware ADS-B
Thu 05:53:37 PM 39.8770 -87.0240 148° Southeast 524 603 34,500 1,037 Climbing FlightAware ADS-B
Thu 05:54:16 PM 39.8000 -86.9600 147° Southeast 524 603 35,100 951 Climbing FlightAware ADS-B
Thu 05:54:59 PM 39.7110 -86.8850 147° Southeast 522 601 35,800 966 Climbing FlightAware ADS-B
Thu 05:55:43 PM 39.6210 -86.8090 147° Southeast 523 602 36,500 857 Climbing FlightAware ADS-B
Thu 05:56:23 PM 39.5410 -86.7430 148° Southeast 523 602 37,000 357 Climbing FlightAware ADS-B
Thu 05:57:07 PM 39.4490 -86.6680 148° Southeast 526 605 37,000  Level FlightAware ADS-B
Thu 05:57:47 PM 39.3680 -86.6000 147° Southeast 526 605 37,000  Level FlightAware ADS-B
Thu 05:58:31 PM 39.2790 -86.5270 148° Southeast 524 603 37,000  Level FlightAware ADS-B
Thu 05:59:13 PM 39.1920 -86.4550 147° Southeast 522 601 37,000  Level FlightAware ADS-B
Thu 05:59:52 PM 39.1190 -86.3850 143° Southeast 521 600 37,000  Level FlightAware ADS-B
Thu 06:00:33 PM 39.0490 -86.2940 135° Southeast 519 597 37,000  Level FlightAware ADS-B
Thu 06:01:19 PM 38.9710 -86.1920 135° Southeast 518 596 37,000  Level FlightAware ADS-B
Thu 06:01:56 PM 38.9100 -86.1120 134° Southeast 517 595 37,000  Level FlightAware ADS-B
Thu 06:02:44 PM 38.8300 -86.0070 134° Southeast 517 595 37,000  Level FlightAware ADS-B
Thu 06:03:26 PM 38.7610 -85.9140 134° Southeast 514 592 37,000  Level FlightAware ADS-B
Thu 06:04:08 PM 38.6920 -85.8220 134° Southeast 514 592 37,000  Level FlightAware ADS-B
Thu 06:04:48 PM 38.6250 -85.7340 134° Southeast 514 592 37,000  Level FlightAware ADS-B
Thu 06:05:28 PM 38.5590 -85.6470 134° Southeast 513 590 37,000  Level FlightAware ADS-B
Thu 06:06:14 PM 38.4830 -85.5480 134° Southeast 512 589 37,000  Level FlightAware ADS-B
Thu 06:06:54 PM 38.4160 -85.4620 135° Southeast 514 592 37,000  Level FlightAware ADS-B
Thu 06:07:38 PM 38.3410 -85.3700 136° Southeast 513 590 37,000  Level FlightAware ADS-B
Thu 06:08:18 PM 38.2600 -85.3040 147° Southeast 512 589 37,000  Level FlightAware ADS-B
Thu 06:08:58 PM 38.1750 -85.2530 155° Southeast 511 588 37,000  Level FlightAware ADS-B
Thu 06:09:42 PM 38.0810 -85.2010 156° South 510 587 37,000  Level FlightAware ADS-B
Thu 06:10:18 PM 37.9990 -85.1650 161° South 508 585 37,000  Level FlightAware ADS-B
Thu 06:11:06 PM 37.8920 -85.1350 168° South 504 580 37,000  Level FlightAware ADS-B
Thu 06:11:18 PM 37.8627 -85.1279 169° South 503 579 37,000  Level FlightAware ADS-B
Thu 06:11:48 PM 37.7980 -85.1130 170° South 502 578 37,000  Level FlightAware ADS-B
Thu 06:12:16 PM 37.7292 -85.0982 170° South 503 579 37,000  Level FlightAware ADS-B
Thu 06:12:47 PM 37.6599 -85.0829 170° South 502 578 37,000  Level FlightAware ADS-B
Thu 06:13:19 PM 37.5849 -85.0668 170° South 501 577 37,000  Level FlightAware ADS-B
Thu 06:13:52 PM 37.5110 -85.0510 170° South 500 575 37,000  Level FlightAware ADS-B
Thu 06:14:24 PM 37.4376 -85.0354 170° South 500 575 37,000  Level FlightAware ADS-B
Thu 06:15:10 PM 37.3327 -85.0138 171° South 498 573 37,000  Level FlightAware ADS-B
Thu 06:15:47 PM 37.2484 -84.9974 171° South 498 573 37,000  Level FlightAware ADS-B
Thu 06:16:12 PM 37.1929 -84.9876 172° South 494 568 37,000  Level FlightAware ADS-B
Thu 06:16:42 PM 37.1243 -84.9815 176° South 492 566 37,000  Level FlightAware ADS-B
Thu 06:17:12 PM 37.0548 -84.9755 176° South 490 564 37,000  Level FlightAware ADS-B
Thu 06:17:51 PM 36.9689 -84.9684 176° South 486 559 37,000  Level FlightAware ADS-B
Thu 06:18:21 PM 36.9010 -84.9626 176° South 485 558 37,000  Level FlightAware ADS-B
Thu 06:19:09 PM 36.7939 -84.9502 175° South 485 558 37,000  Level FlightAware ADS-B
Thu 06:19:43 PM 36.7197 -84.9315 169° South 487 560 37,000  Level FlightAware ADS-B
Thu 06:19:59 PM 36.6849 -84.9179 163° South 487 560 37,000  Level FlightAware ADS-B
Thu 06:20:09 PM 36.6633 -84.9050 154° Southeast 488 562 37,000  Level FlightAware ADS-B
Thu 06:21:10 PM 36.5650 -84.8140 143° Southeast 487 560 37,000  Level FlightAware ADS-B
Thu 06:21:19 PM 36.5394 -84.7884 141° Southeast 487 560 37,000  Level FlightAware ADS-B
Thu 06:21:53 PM 36.4791 -84.7267 141° Southeast 485 558 37,000  Level FlightAware ADS-B
Thu 06:22:14 PM 36.4448 -84.6902 139° Southeast 478 550 37,000  Level FlightAware ADS-B
Thu 06:22:46 PM 36.3947 -84.6298 136° Southeast 473 544 37,000  Level FlightAware ADS-B
Thu 06:23:21 PM 36.3369 -84.5645 138° Southeast 474 545 37,000  Level FlightAware ADS-B
Thu 06:23:31 PM 36.3188 -84.5489 145° Southeast 476 548 37,000  Level FlightAware ADS-B
Thu 06:23:47 PM 36.2909 -84.5243 145° Southeast 473 544 37,000  Level FlightAware ADS-B
Thu 06:23:56 PM 36.2766 -84.5080 137° Southeast 472 543 37,000  Level FlightAware ADS-B
Thu 06:24:04 PM 36.2653 -84.4924 132° Southeast 468 539 37,000  Level FlightAware ADS-B
Thu 06:24:10 PM 36.2568 -84.4782 127° Southeast 467 537 37,000  Level FlightAware ADS-B
Thu 06:24:41 PM 36.2240 -84.4065 120° Southeast 464 534 37,000  Level FlightAware ADS-B
Thu 06:25:13 PM 36.1940 -84.3317 116° Southeast 466 536 37,000  Level FlightAware ADS-B
Thu 06:25:43 PM 36.1652 -84.2597 116° Southeast 469 540 37,000  Level FlightAware ADS-B
Thu 06:26:14 PM 36.1356 -84.1853 116° Southeast 469 540 37,000  Level FlightAware ADS-B
Thu 06:26:44 PM 36.1070 -84.1112 116° Southeast 469 540 37,000  Level FlightAware ADS-B
Thu 06:27:17 PM 36.0768 -84.0317 115° Southeast 468 539 37,000  Level FlightAware ADS-B
Thu 06:27:50 PM 36.0466 -83.9519 115° Southeast 468 539 37,000  Level FlightAware ADS-B
Thu 06:28:21 PM 36.0187 -83.8771 115° Southeast 471 542 37,000  Level FlightAware ADS-B
Thu 06:28:52 PM 35.9890 -83.8025 116° Southeast 473 544 37,000  Level FlightAware ADS-B
Thu 06:29:22 PM 35.9602 -83.7312 117° Southeast 475 547 37,000  Level FlightAware ADS-B
Thu 06:29:32 PM 35.9489 -83.7074 120° Southeast 476 548 37,000  Level FlightAware ADS-B
Thu 06:29:42 PM 35.9353 -83.6857 128° Southeast 477 549 37,000  Level FlightAware ADS-B
Thu 06:29:47 PM 35.9266 -83.6746 134° Southeast 477 549 37,000  Level FlightAware ADS-B
Thu 06:29:56 PM 35.9122 -83.6607 142° Southeast 477 549 37,000  Level FlightAware ADS-B
Thu 06:30:02 PM 35.8997 -83.6522 151° Southeast 475 547 37,000  Level FlightAware ADS-B
Thu 06:30:11 PM 35.8831 -83.6432 156° South 473 544 37,000  Level FlightAware ADS-B
Thu 06:30:41 PM 35.8211 -83.6164 161° South 471 542 37,000  Level FlightAware ADS-B
Thu 06:31:11 PM 35.7579 -83.5906 162° South 471 542 37,000  Level FlightAware ADS-B
Thu 06:31:41 PM 35.6959 -83.5655 162° South 470 541 37,000  Level FlightAware ADS-B
Thu 06:32:12 PM 35.6320 -83.5396 162° South 470 541 37,000  Level FlightAware ADS-B
Thu 06:32:43 PM 35.5692 -83.5142 162° South 468 539 37,000  Level FlightAware ADS-B
Thu 06:33:13 PM 35.5067 -83.4885 161° South 465 535 37,000  Level FlightAware ADS-B
Thu 06:33:44 PM 35.4450 -83.4634 162° South 464 534 37,000  Level FlightAware ADS-B
Thu 06:34:14 PM 35.3834 -83.4384 162° South 462 532 37,000  Level FlightAware ADS-B
Thu 06:34:46 PM 35.3187 -83.4120 162° South 459 528 37,000  Level FlightAware ADS-B
Thu 06:35:16 PM 35.2580 -83.3875 162° South 453 521 37,000  Level FlightAware ADS-B
Thu 06:35:54 PM 35.1833 -83.3573 162° South 450 518 37,000  Level FlightAware ADS-B
Thu 06:36:26 PM 35.1209 -83.3320 162° South 448 516 37,000  Level FlightAware ADS-B
Thu 06:36:57 PM 35.0592 -83.3070 162° South 447 514 37,000  Level FlightAware ADS-B
Thu 06:37:27 PM 35.0000 -83.2831 162° South 444 511 37,000  Level FlightAware ADS-B
Thu 06:37:58 PM 34.9416 -83.2597 162° South 443 510 37,000  Level FlightAware ADS-B
Thu 06:38:28 PM 34.8826 -83.2360 162° South 442 509 37,000  Level FlightAware ADS-B
Thu 06:38:58 PM 34.8237 -83.2125 162° South 445 512 37,000  Level FlightAware ADS-B
Thu 06:39:22 PM 34.7773 -83.1937 162° South 444 511 37,000  Level FlightAware ADS-B
Thu 06:39:33 PM 34.7566 -83.1824 156° South 446 513 37,000  Level FlightAware ADS-B
Thu 06:41:35 PM 34.5340 -83.0380 152° Southeast 452 520 37,000  Level FlightAware ADS-B
Thu 06:44:15 PM 34.2390 -82.8470 152° Southeast 452 520 37,000  Level FlightAware ADS-B
Thu 06:44:51 PM 34.1710 -82.8050 153° Southeast 451 519 37,000  Level FlightAware ADS-B
Thu 06:45:38 PM 34.0820 -82.7500 153° Southeast 452 520 37,000  Level FlightAware ADS-B
Thu 06:46:19 PM 34.0070 -82.7060 154° Southeast 451 519 37,000  Level FlightAware ADS-B
Thu 06:47:03 PM 33.9180 -82.6700 161° South 450 518 37,000  Level FlightAware ADS-B
Thu 06:47:33 PM 33.8594 -82.6466 162° South 450 518 37,000 -209 Level FlightAware ADS-B
Thu 06:48:29 PM 33.7500 -82.6040 162° South 451 519 36,700 -667 Descending FlightAware ADS-B
Thu 06:49:03 PM 33.6830 -82.5790 163° South 441 507 36,000 -545 Descending FlightAware ADS-B
Thu 06:49:46 PM 33.6020 -82.5470 162° South 448 516 36,000  Level FlightAware ADS-B
Thu 06:50:42 PM 33.4850 -82.5020 162° South 455 524 36,000  Level FlightAware ADS-B
Thu 06:51:27 PM 33.3940 -82.4720 165° South 460 529 36,000  Level FlightAware ADS-B
Thu 06:52:12 PM 33.3010 -82.4410 164° South 460 529 36,000  Level FlightAware ADS-B
Thu 06:52:52 PM 33.2210 -82.4150 165° South 461 531 36,000  Level FlightAware ADS-B
Thu 06:53:32 PM 33.1420 -82.3900 165° South 465 535 36,000  Level FlightAware ADS-B
Thu 06:54:12 PM 33.0530 -82.3610 165° South 463 533 36,000  Level FlightAware ADS-B
Thu 06:55:07 PM 32.9490 -82.3270 165° South 462 532 36,000  Level FlightAware ADS-B
Thu 06:56:47 PM 32.7400 -82.2600 165° South 463 533 36,000  Level FlightAware ADS-B
Thu 06:57:33 PM 32.6420 -82.2290 165° South 462 532 36,000  Level FlightAware ADS-B
Thu 06:58:12 PM 32.5600 -82.2030 165° South 462 532 36,000  Level FlightAware ADS-B
Thu 06:58:53 PM 32.4760 -82.1760 165° South 462 532 36,000  Level FlightAware ADS-B
Thu 06:59:32 PM 32.3970 -82.1510 165° South 461 531 36,000  Level FlightAware ADS-B
Thu 07:00:32 PM 32.2900 -82.1160 165° South 461 531 36,000  Level FlightAware ADS-B
Thu 07:01:18 PM 32.2100 -82.0880 164° South 461 531 36,000  Level FlightAware ADS-B
Thu 07:01:56 PM 32.1440 -82.0660 164° South 461 531 36,000  Level FlightAware ADS-B
Thu 07:02:44 PM 32.0600 -82.0380 164° South 461 531 36,000  Level FlightAware ADS-B
Thu 07:03:20 PM 31.9970 -82.0160 164° South 461 531 36,000  Level FlightAware ADS-B
Thu 07:04:06 PM 31.9170 -81.9890 164° South 461 531 36,000  Level FlightAware ADS-B
Thu 07:04:42 PM 31.8540 -81.9680 164° South 461 531 36,000 460 Level FlightAware ADS-B
Thu 07:05:23 PM 31.6780 -81.9240 168° South 38,000 533 Climbing FlightAware ADS-B
Thu 07:08:27 PM 31.3720 -81.8280 165° South 463 533 38,000  Level FlightAware ADS-B
Thu 07:09:05 PM 31.3050 -81.8070 165° South 463 533 38,000  Level FlightAware ADS-B
Thu 07:09:53 PM 31.2210 -81.7800 165° South 463 533 38,000  Level FlightAware ADS-B
Thu 07:10:53 PM 31.1150 -81.7470 165° South 463 533 38,000  Level FlightAware ADS-B
Thu 07:11:49 PM 31.0170 -81.7170 165° South 463 533 38,000  Level FlightAware ADS-B
Thu 07:12:24 PM 30.9550 -81.6970 165° South 463 533 38,000  Level FlightAware ADS-B
Thu 07:13:13 PM 30.8690 -81.6710 165° South 463 533 38,000  Level FlightAware ADS-B
Thu 07:13:53 PM 30.6200 -81.5920 165° South 38,000  Level FlightAware ADS-B
Thu 07:14:53 PM 30.5030 -81.5460 161° South 468 539 38,000  Level FlightAware ADS-B
Thu 07:15:42 PM 30.4030 -81.5070 161° South 468 539 38,000  Level FlightAware ADS-B
Thu 07:16:29 PM 30.2960 -81.4650 161° South 464 534 38,000  Level FlightAware ADS-B
Thu 07:17:05 PM 30.2270 -81.4380 161° South 462 532 38,000  Level FlightAware ADS-B
Thu 07:17:53 PM 30.1300 -81.4010 162° South 458 527 38,000  Level FlightAware ADS-B
Thu 07:18:29 PM 30.0670 -81.3770 162° South 457 526 38,000  Level FlightAware ADS-B
Thu 07:19:27 PM 30.0200 -81.3580 161° South 454 522 38,000  Level FlightAware ADS-B
Thu 07:20:03 PM 29.9590 -81.3340 161° South 454 522 38,000  Level FlightAware ADS-B
Thu 07:20:51 PM 29.7800 -81.2660 162° South 449 517 38,000  Level FlightAware ADS-B
Thu 07:21:45 PM 29.7600 -81.2580 161° South 447 514 38,000  Level FlightAware ADS-B
Thu 07:22:31 PM 29.5820 -81.1890 161° South 444 511 38,000  Level FlightAware ADS-B
Thu 07:23:08 PM 29.5080 -81.1610 162° South 442 509 38,000  Level FlightAware ADS-B
Thu 07:23:54 PM 29.4350 -81.1120 150° Southeast 451 519 38,000  Level FlightAware ADS-B
Thu 07:24:34 PM 29.3760 -81.0310 130° Southeast 452 520 38,000  Level FlightAware ADS-B
Thu 07:25:34 PM 29.2960 -80.9170 129° Southeast 452 520 38,000  Level FlightAware ADS-B
Thu 07:26:09 PM 29.2560 -80.8600 129° Southeast 453 521 38,000  Level FlightAware ADS-B
Thu 07:27:09 PM 29.1790 -80.7450 127° Southeast 454 522 38,000  Level FlightAware ADS-B
Thu 07:27:54 PM 29.1210 -80.6500 125° Southeast 455 524 38,000  Level FlightAware ADS-B
Thu 07:28:49 PM 29.0530 -80.5410 125° Southeast 457 526 38,000  Level FlightAware ADS-B
Thu 07:29:29 PM 29.0060 -80.4630 125° Southeast 458 527 38,000  Level FlightAware ADS-B
Thu 07:30:09 PM 28.9550 -80.3810 125° Southeast 456 525 38,000  Level FlightAware ADS-B
Thu 07:30:49 PM 28.9060 -80.3030 126° Southeast 454 522 38,000  Level FlightAware ADS-B
Thu 07:31:49 PM 28.8320 -80.1830 125° Southeast 452 520 38,000  Level FlightAware ADS-B
Thu 07:32:44 PM 28.7650 -80.0760 126° Southeast 452 520 38,000  Level FlightAware ADS-B
Thu 07:33:39 PM 28.6860 -79.9800 133° Southeast 447 514 38,000  Level FlightAware ADS-B
Thu 07:33:59 PM 28.6480 -79.9610 156° South 448 516 38,000  Level FlightAware ADS-B
Thu 07:35:09 PM 28.5330 -79.9460 173° South 436 502 38,000  Level FlightAware ADS-B
Thu 07:35:19 PM 28.4890 -79.9820 216° Southwest 432 497 38,000  Level FlightAware ADS-B
Thu 07:36:04 PM 28.3960 -80.0110 195° South 434 499 38,000  Level FlightAware ADS-B
Thu 07:36:39 PM 28.3310 -80.0300 194° South 435 501 38,000  Level FlightAware ADS-B
Thu 07:37:24 PM 28.2400 -80.0580 195° South 435 501 38,000 -533 Level FlightAware ADS-B
Thu 07:38:09 PM 28.1500 -80.0850 195° South 433 498 37,200 -918 Descending FlightAware ADS-B
Thu 07:38:49 PM 28.0790 -80.1060 195° South 437 503 36,700 -975 Descending FlightAware ADS-B
Thu 07:39:29 PM 27.9890 -80.1330 195° South 448 516 35,900 -1,050 Descending FlightAware ADS-B
Thu 07:40:09 PM 27.9100 -80.1570 195° South 452 520 35,300 -918 Descending FlightAware ADS-B
Thu 07:40:54 PM 27.8180 -80.1840 195° South 449 517 34,600 -1,733 Descending FlightAware ADS-B
Thu 07:41:39 PM 27.7280 -80.2100 194° South 444 511 32,700 -1,740 Descending FlightAware ADS-B
Thu 07:42:34 PM 27.6150 -80.2090 180° South 469 540 31,700 -1,011 Descending FlightAware ADS-B
Thu 07:43:14 PM 27.5280 -80.1970 173° South 472 543 31,100 -975 Descending FlightAware ADS-B
Thu 07:43:54 PM 27.4420 -80.1860 174° South 469 540 30,400 -1,271 Descending FlightAware ADS-B
Thu 07:44:39 PM 27.3430 -80.1730 173° South 469 540 29,300 -1,000 Descending FlightAware ADS-B
Thu 07:45:18 PM 27.2710 -80.1620 172° South 455 524 29,000 -1,515 Descending FlightAware ADS-B
Thu 07:46:18 PM 27.1520 -80.1450 173° South 441 507 26,800 -1,375 Descending FlightAware ADS-B
Thu 07:46:54 PM 27.0900 -80.1350 172° South 441 507 26,800  Level FlightAware ADS-B
Thu 07:47:41 PM 27.0090 -80.1220 172° South 441 507 26,800  Level FlightAware ADS-B
Thu 07:48:17 PM 26.9470 -80.1130 173° South 441 507 26,800  Level FlightAware ADS-B
Thu 07:49:05 PM 26.8650 -80.1000 172° South 441 507 26,800 -5,383 Level FlightAware ADS-B
Thu 07:50:04 PM 26.6990 -80.0820 174° South 391 450 17,200 -6,000 Descending FlightAware ADS-B
Thu 07:51:01 PM 26.5990 -80.0680 173° South 376 433 15,200 -2,063 Descending FlightAware ADS-B
Thu 07:51:40 PM 26.5320 -80.0590 173° South 361 415 13,900 -1,704 Descending FlightAware ADS-B
Thu 07:52:22 PM 26.4640 -80.0490 173° South 343 395 12,900 -1,605 Descending FlightAware ADS-B
Thu 07:53:06 PM 26.3940 -80.0370 171° South 341 392 11,600 -1,590 Descending FlightAware ADS-B
Thu 07:53:45 PM 26.3350 -80.0270 171° South 338 389 10,700 -1,157 Descending FlightAware ADS-B
Thu 07:54:29 PM 26.2670 -80.0160 172° South 330 380 10,000 -667 Descending FlightAware ADS-B
Thu 07:54:57 PM 26.2250 -80.0210 186° South 326 375 9,900 -167 Descending FlightAware ADS-B
Thu 07:55:05 PM 26.2130 -80.0250 197° South 325 374 9,900  Level FlightAware ADS-B
Thu 07:55:33 PM 26.1720 -80.0360 194° South 314 361 9,900 -484 Level FlightAware ADS-B
Thu 07:56:07 PM 26.1260 -80.0490 194° South 297 342 9,400 -1,180 Descending FlightAware ADS-B
Thu 07:56:34 PM 26.0900 -80.0600 195° South 292 336 8,700 -1,345 Descending FlightAware ADS-B
Thu 07:57:05 PM 26.0500 -80.0710 194° South 287 330 8,100 -828 Descending FlightAware ADS-B
Thu 07:57:32 PM 26.0150 -80.0810 194° South 284 327 7,900 -316 Descending FlightAware ADS-B
Thu 07:57:43 PM 26.0010 -80.0840 191° South 283 326 7,900  Level FlightAware ADS-B
Thu 07:58:12 PM 25.9650 -80.0980 199° South 275 316 7,900  Level FlightAware ADS-B
Thu 07:58:25 PM 25.9540 -80.1100 224° Southwest 273 314 7,900  Level FlightAware ADS-B
Thu 07:58:41 PM 25.9480 -80.1310 252° West 271 312 7,900  Level FlightAware ADS-B
Thu 07:59:08 PM 25.9440 -80.1700 264° West 270 311 7,900 -536 Level FlightAware ADS-B
Thu 07:59:37 PM 25.9410 -80.2090 265° West 268 308 7,400 -1,091 Descending FlightAware ADS-B
Thu 08:00:03 PM 25.9390 -80.2440 266° West 258 297 6,900 -1,309 Descending FlightAware ADS-B
Thu 08:00:32 PM 25.9360 -80.2820 265° West 247 284 6,200 -1,500 Descending FlightAware ADS-B
Thu 08:00:47 PM 25.9340 -80.2990 263° West 241 277 5,800 -1,692 Descending FlightAware ADS-B
Thu 08:01:11 PM 25.9320 -80.3290 266° West 239 275 5,100 -1,680 Descending FlightAware ADS-B
Thu 08:01:37 PM 25.9300 -80.3590 266° West 235 270 4,400 -1,700 Descending FlightAware ADS-B
Thu 08:02:11 PM 25.9270 -80.4010 265° West 233 268 3,400 -1,552 Descending FlightAware ADS-B
Thu 08:02:35 PM 25.9220 -80.4280 258° West 224 258 2,900 -732 Descending FlightAware ADS-B
Thu 08:02:52 PM 25.9110 -80.4400 224° Southwest 215 247 2,900  Level FlightAware ADS-B
Thu 08:03:21 PM 25.8840 -80.4510 200° South 194 223 2,900  Level FlightAware ADS-B
Thu 08:03:36 PM 25.8740 -80.4460 156° South 190 219 2,900  Level FlightAware ADS-B
Thu 08:03:45 PM 25.8680 -80.4370 127° Southeast 191 220 2,900 -353 Level FlightAware ADS-B
Thu 08:04:10 PM 25.8590 -80.4190 119° Southeast 168 193 2,700 -964 Descending FlightAware ADS-B
Thu 08:04:41 PM 25.8460 -80.3940 120° Southeast 161 185 2,000 -1,304 Descending FlightAware ADS-B
Thu 08:04:56 PM 25.8400 -80.3830 121° Southeast 152 175 1,700 -1,171 Descending FlightAware ADS-B
Thu 08:05:22 PM 25.8320 -80.3670 119° Southeast 143 165 1,200 -880 Descending FlightAware ADS-B
Thu 08:06:11 PM 25.8160 -80.3340 118° Southeast 141 162 600 -720 Descending FlightAware ADS-B
Thu 08:06:37 PM 25.8070 -80.3180 122° Southeast 141 162 300 -692 Descending FlightAware ADS-B
Thu 08:07:06 PM 25.7980 -80.3000 119° Southeast 142 163 -621 Descending FlightAware ADS-B
Thu 08:07:32 PM 25.7920 -80.2880 119° Southeast 34 39  Level FlightAware ADS-B
Thu 08:08:01 PM 25.7930 -80.2870 42° Northeast 27 31  Level FlightAware ADS-B
Thu 08:08:26 PM 25.7940 -80.2870 360° North 16 18  Level FlightAware ADS-B
Thu 08:08:43 PM 25.7950 -80.2880 318° Northwest 17 20  Level FlightAware ADS-B
Thu 08:09:10 PM 25.7970 -80.2880 360° North 19 22  Level FlightAware ADS-B

Login

Don't have an account? Register now (free) for customized features, flight alerts, and more!